Time;durP1;ratioP1;P1;durP2;ratioP2;P2;SDS_P1;SDS_P2;PMS_P1;PMS_P2;Temp;Humidity;BMP_temperature;BMP_pressure;BME280_temperature;BME280_humidity;BME280_pressure;Samples;Min_cycle;Max_cycle;Signal;HPM_P1;HPM_P2
2023/08/09 00:01:56;;;;;;;3.97;2.90;;;;;;;13.80;100.00;101162.00;5036975;28;20104;-77
2023/08/09 00:04:22;;;;;;;3.08;2.80;;;;;;;13.83;100.00;101160.91;5049458;28;20049;-77
2023/08/09 00:06:47;;;;;;;3.00;2.70;;;;;;;13.90;100.00;101161.25;5047994;28;20024;-77
2023/08/09 00:09:12;;;;;;;4.72;2.70;;;;;;;13.87;100.00;101156.22;5051435;28;20048;-77
2023/08/09 00:11:38;;;;;;;3.10;2.70;;;;;;;13.87;100.00;101158.84;5041691;28;20469;-78
2023/08/09 00:14:03;;;;;;;3.25;2.92;;;;;;;13.85;100.00;101153.69;5050364;28;20025;-77
2023/08/09 00:16:29;;;;;;;3.00;2.70;;;;;;;13.84;100.00;101156.47;5049679;28;20150;-77
2023/08/09 00:18:54;;;;;;;3.42;2.65;;;;;;;13.82;100.00;101158.41;5029763;28;20029;-78
2023/08/09 00:21:19;;;;;;;5.63;3.17;;;;;;;13.82;100.00;101161.03;5037006;28;20385;-78
2023/08/09 00:23:45;;;;;;;3.08;2.78;;;;;;;13.80;100.00;101158.53;5045123;28;20040;-77
2023/08/09 00:26:10;;;;;;;3.45;2.70;;;;;;;13.76;100.00;101159.75;5048166;28;20392;-78
2023/08/09 00:28:36;;;;;;;5.65;2.80;;;;;;;13.72;100.00;101156.53;5049685;28;20036;-78
2023/08/09 00:31:03;;;;;;;2.70;2.45;;;;;;;13.67;100.00;101161.34;5035938;28;20021;-78
2023/08/09 00:33:28;;;;;;;4.30;3.20;;;;;;;13.71;100.00;101162.78;5034323;28;20501;-78
2023/08/09 00:35:54;;;;;;;3.83;2.90;;;;;;;13.66;100.00;101159.69;5042346;28;20025;-78
2023/08/09 00:38:19;;;;;;;3.78;3.00;;;;;;;13.69;100.00;101164.72;5040859;28;20477;-78
2023/08/09 00:40:44;;;;;;;3.38;2.92;;;;;;;13.73;100.00;101157.34;5049732;28;20060;-78
2023/08/09 00:43:10;;;;;;;6.03;3.20;;;;;;;13.77;100.00;101159.63;5048777;28;20038;-78
2023/08/09 00:45:38;;;;;;;3.92;3.08;;;;;;;13.80;100.00;101162.00;5036885;28;20054;-78
2023/08/09 00:48:04;;;;;;;3.45;2.92;;;;;;;13.76;100.00;101165.88;5044108;28;20032;-78
2023/08/09 00:50:29;;;;;;;5.10;3.28;;;;;;;13.80;100.00;101159.38;5049152;28;20037;-78
2023/08/09 00:52:55;;;;;;;5.05;3.53;;;;;;;13.83;100.00;101170.66;5031018;28;20025;-78
2023/08/09 00:55:21;;;;;;;3.30;3.00;;;;;;;13.78;100.00;101163.94;5039192;28;20124;-78
2023/08/09 00:57:48;;;;;;;3.30;2.65;;;;;;;13.69;100.00;101175.28;5046835;28;20032;-78
2023/08/09 01:00:14;;;;;;;5.18;3.42;;;;;;;13.75;100.00;101171.28;5016989;28;20473;-78
2023/08/09 01:02:40;;;;;;;4.25;2.90;;;;;;;13.76;100.00;101176.47;5033896;28;20148;-79
2023/08/09 01:05:06;;;;;;;3.70;3.17;;;;;;;13.76;100.00;101184.38;5061157;28;20486;-79
2023/08/09 01:07:39;;;;;;;3.85;3.30;;;;;;;13.77;100.00;101187.88;5028231;28;20072;-79
2023/08/09 01:10:15;;;;;;;3.72;3.08;;;;;;;13.82;100.00;101176.91;5032067;28;20037;-79
2023/08/09 01:12:48;;;;;;;3.50;3.20;;;;;;;13.77;100.00;101170.19;5047560;28;20029;-79
2023/08/09 01:15:16;;;;;;;3.42;3.03;;;;;;;13.75;100.00;101184.50;5049754;28;20025;-79
2023/08/09 01:17:47;;;;;;;8.13;3.60;;;;;;;13.78;100.00;101185.09;5050097;28;20102;-79
2023/08/09 01:20:13;;;;;;;3.60;3.30;;;;;;;13.75;100.00;101174.78;5049192;28;20112;-79
2023/08/09 01:22:46;;;;;;;4.72;3.40;;;;;;;13.73;100.00;101168.78;5041259;28;20033;-79
2023/08/09 01:25:12;;;;;;;4.47;3.70;;;;;;;13.76;100.00;101170.31;5049454;28;20044;-79
2023/08/09 01:27:39;;;;;;;4.43;3.17;;;;;;;13.75;100.00;101174.78;5020470;28;20033;-79
2023/08/09 01:30:09;;;;;;;4.38;3.40;;;;;;;13.69;100.00;101180.56;5045263;28;20028;-79
2023/08/09 01:32:35;;;;;;;4.45;3.55;;;;;;;13.73;100.00;101179.34;5045409;28;20168;-80
2023/08/09 01:35:01;;;;;;;3.72;3.13;;;;;;;13.75;100.00;101182.72;5039082;28;20378;-80
2023/08/09 01:37:34;;;;;;;4.13;3.42;;;;;;;13.73;100.00;101186.44;5049207;28;20081;-80
2023/08/09 01:40:09;;;;;;;5.18;3.63;;;;;;;13.73;100.00;101186.44;5046227;28;20030;-80
2023/08/09 01:42:39;;;;;;;4.03;3.60;;;;;;;13.69;100.00;101185.03;5047478;28;20078;-80
2023/08/09 01:45:10;;;;;;;3.67;3.38;;;;;;;13.66;100.00;101185.28;5026215;28;20132;-79
2023/08/09 01:47:35;;;;;;;6.13;3.30;;;;;;;13.68;100.00;101188.63;5013005;28;20026;-80
2023/08/09 01:50:01;;;;;;;3.70;3.40;;;;;;;13.67;100.00;101187.78;5060109;28;20195;-80
2023/08/09 01:52:26;;;;;;;3.85;3.45;;;;;;;13.57;100.00;101189.47;5043899;28;20031;-80
2023/08/09 01:54:53;;;;;;;4.80;3.55;;;;;;;13.56;100.00;101205.47;5063355;28;20009;-79
2023/08/09 01:57:19;;;;;;;4.95;3.67;;;;;;;13.51;100.00;101208.50;5059435;28;20487;-80
2023/08/09 01:59:44;;;;;;;5.05;3.30;;;;;;;13.47;100.00;101196.47;5047663;28;20056;-80
2023/08/09 02:02:10;;;;;;;3.83;3.42;;;;;;;13.42;100.00;101194.22;5033270;28;20104;-80
2023/08/09 02:04:36;;;;;;;3.65;3.35;;;;;;;13.45;100.00;101198.41;5013304;28;20051;-80
2023/08/09 02:07:01;;;;;;;5.03;3.15;;;;;;;13.36;100.00;101200.00;5040968;28;20622;-80
2023/08/09 02:09:30;;;;;;;3.97;3.10;;;;;;;13.30;100.00;101215.50;5044438;28;20041;-79
2023/08/09 02:11:55;;;;;;;7.63;3.38;;;;;;;13.26;100.00;101208.78;5048062;28;20025;-79
2023/08/09 02:14:21;;;;;;;3.88;3.38;;;;;;;13.24;100.00;101213.34;5048535;28;20028;-79
2023/08/09 02:16:46;;;;;;;3.50;3.20;;;;;;;13.17;100.00;101219.09;5052973;28;20029;-79
2023/08/09 02:19:12;;;;;;;3.72;3.25;;;;;;;13.11;100.00;101214.28;5041550;28;20478;-79
2023/08/09 02:21:39;;;;;;;5.38;3.28;;;;;;;13.08;100.00;101217.16;5034291;28;20029;-79
2023/08/09 02:24:05;;;;;;;3.60;3.20;;;;;;;13.07;100.00;101220.75;5049868;28;20032;-79
2023/08/09 02:26:31;;;;;;;5.43;3.30;;;;;;;13.03;100.00;101229.03;5052365;28;20032;-79
2023/08/09 02:28:57;;;;;;;5.80;3.40;;;;;;;13.02;100.00;101219.44;5051347;28;20477;-79
2023/08/09 02:31:22;;;;;;;11.88;3.95;;;;;;;12.96;100.00;101223.41;5050738;28;20029;-79
2023/08/09 02:33:47;;;;;;;4.90;3.63;;;;;;;12.92;100.00;101227.25;5049121;28;20112;-80
2023/08/09 02:36:13;;;;;;;5.05;3.80;;;;;;;12.89;100.00;101235.41;5033245;28;20026;-79
2023/08/09 02:38:38;;;;;;;5.18;3.80;;;;;;;12.85;100.00;101242.72;5035815;28;20029;-79
2023/08/09 02:41:04;;;;;;;5.05;3.40;;;;;;;12.82;100.00;101242.13;5033511;28;20108;-79
2023/08/09 02:43:30;;;;;;;4.03;3.63;;;;;;;12.80;100.00;101238.75;5045045;28;20059;-79
2023/08/09 02:45:56;;;;;;;4.30;3.97;;;;;;;12.73;100.00;101242.81;5052773;28;20071;-79
2023/08/09 02:48:22;;;;;;;5.15;3.78;;;;;;;12.72;100.00;101238.50;5049307;28;20079;-79
2023/08/09 02:50:48;;;;;;;4.05;3.60;;;;;;;12.68;100.00;101239.69;5052727;28;20021;-79
2023/08/09 02:53:17;;;;;;;3.72;3.42;;;;;;;12.67;100.00;101253.84;5025280;28;20038;-79
2023/08/09 02:55:43;;;;;;;3.80;3.50;;;;;;;12.66;100.00;101260.09;5044446;28;20055;-79
2023/08/09 02:58:09;;;;;;;3.70;3.40;;;;;;;12.64;100.00;101251.44;5052897;28;20024;-79
2023/08/09 03:00:34;;;;;;;3.63;3.33;;;;;;;12.63;100.00;101262.97;5049924;28;20462;-79
2023/08/09 03:03:04;;;;;;;3.85;3.55;;;;;;;12.64;100.00;101259.38;5062558;28;20027;-79
2023/08/09 03:05:30;;;;;;;3.35;3.05;;;;;;;12.60;100.00;101255.28;5068825;28;20028;-79
2023/08/09 03:07:56;;;;;;;3.90;3.50;;;;;;;12.54;100.00;101260.06;5072475;28;20029;-79
2023/08/09 03:10:22;;;;;;;5.15;3.47;;;;;;;12.49;100.00;101264.84;5055156;28;20041;-78
2023/08/09 03:12:48;;;;;;;3.15;2.85;;;;;;;12.47;100.00;101258.84;5055684;28;20026;-79
2023/08/09 03:15:15;;;;;;;3.17;2.92;;;;;;;12.44;100.00;101264.34;5073384;28;20020;-79
2023/08/09 03:17:44;;;;;;;3.30;2.90;;;;;;;12.42;100.00;101268.91;5073073;28;20013;-79
2023/08/09 03:20:13;;;;;;;3.75;3.05;;;;;;;12.39;100.00;101271.75;5065622;28;20036;-79
2023/08/09 03:22:42;;;;;;;3.10;2.90;;;;;;;12.36;100.00;101266.72;5072294;28;20029;-79
2023/08/09 03:25:12;;;;;;;3.85;3.00;;;;;;;12.35;100.00;101265.03;5072467;28;20084;-79
2023/08/09 03:27:38;;;;;;;4.15;3.72;;;;;;;12.36;100.00;101261.44;5051530;28;20257;-79
2023/08/09 03:30:05;;;;;;;4.30;3.90;;;;;;;12.32;100.00;101270.53;5073989;28;20092;-79
2023/08/09 03:32:30;;;;;;;5.07;3.85;;;;;;;12.34;100.00;101268.63;5071431;28;20108;-79
2023/08/09 03:34:56;;;;;;;4.43;4.03;;;;;;;12.33;100.00;101272.22;5068072;28;20009;-78
2023/08/09 03:37:21;;;;;;;6.03;4.18;;;;;;;12.31;100.00;101273.28;5063233;28;20033;-79
2023/08/09 03:39:47;;;;;;;6.10;4.90;;;;;;;12.30;100.00;101284.78;5068835;28;20025;-79
2023/08/09 03:42:12;;;;;;;4.85;4.45;;;;;;;12.29;100.00;101278.69;5065164;28;20029;-79
2023/08/09 03:44:37;;;;;;;4.68;4.28;;;;;;;12.27;100.00;101280.59;5048328;28;20036;-79
2023/08/09 03:47:03;;;;;;;21.23;5.00;;;;;;;12.31;100.00;101289.13;5064483;28;20095;-79
2023/08/09 03:49:29;;;;;;;13.15;4.50;;;;;;;12.26;100.00;101292.09;5069560;28;20021;-78
2023/08/09 03:51:54;;;;;;;4.95;4.15;;;;;;;12.25;100.00;101295.69;5051107;28;20041;-79
2023/08/09 03:54:20;;;;;;;10.73;4.30;;;;;;;12.21;100.00;101294.25;5066069;28;20512;-79
2023/08/09 03:56:46;;;;;;;9.35;4.22;;;;;;;12.22;100.00;101303.84;5066694;28;20016;-79
2023/08/09 03:59:11;;;;;;;13.02;3.80;;;;;;;12.20;100.00;101309.22;5072008;28;20024;-79
2023/08/09 04:01:36;;;;;;;7.53;4.00;;;;;;;12.17;100.00;101313.88;5063504;28;20030;-79
2023/08/09 04:04:03;;;;;;;4.15;3.35;;;;;;;12.12;100.00;101311.59;5054539;28;20036;-79
2023/08/09 04:06:29;;;;;;;12.30;3.90;;;;;;;12.09;100.00;101310.97;5031392;28;20057;-79
2023/08/09 04:08:54;;;;;;;7.38;3.30;;;;;;;12.06;100.00;101308.56;5047608;28;20028;-79
2023/08/09 04:11:20;;;;;;;3.60;3.30;;;;;;;12.07;100.00;101315.53;5040437;28;20044;-79
2023/08/09 04:13:45;;;;;;;4.05;3.40;;;;;;;12.04;100.00;101321.88;5041691;28;20131;-79
2023/08/09 04:16:11;;;;;;;3.25;3.05;;;;;;;12.04;100.00;101321.88;5070906;28;20021;-79
2023/08/09 04:18:36;;;;;;;3.60;3.30;;;;;;;12.02;100.00;101322.94;5047603;28;20029;-79
2023/08/09 04:21:02;;;;;;;3.88;3.20;;;;;;;12.01;100.00;101323.84;5051495;28;20024;-79
2023/08/09 04:23:27;;;;;;;4.47;3.08;;;;;;;12.00;100.00;101325.66;5065528;28;20030;-79
2023/08/09 04:25:53;;;;;;;3.47;3.20;;;;;;;12.02;100.00;101325.56;5062158;28;20089;-79
2023/08/09 04:28:19;;;;;;;4.28;3.88;;;;;;;12.01;100.00;101323.84;5057505;28;20032;-79
2023/08/09 04:30:46;;;;;;;4.22;3.92;;;;;;;12.04;100.00;101328.94;5067214;28;20093;-79
2023/08/09 04:33:12;;;;;;;4.65;4.28;;;;;;;12.04;100.00;101319.22;5064165;28;20040;-78
2023/08/09 04:35:42;;;;;;;5.72;4.80;;;;;;;12.04;100.00;101336.84;5040795;28;20021;-79
2023/08/09 04:38:08;;;;;;;5.75;5.05;;;;;;;12.09;100.00;101329.44;5022176;28;20064;-79
2023/08/09 04:40:36;;;;;;;5.80;5.18;;;;;;;12.10;100.00;101325.84;5029437;28;20528;-79
2023/08/09 04:43:02;;;;;;;6.50;5.68;;;;;;;12.12;100.00;101331.84;5051595;28;20446;-79
2023/08/09 04:45:28;;;;;;;7.00;6.30;;;;;;;12.15;100.00;101332.47;5049956;28;20048;-80
2023/08/09 04:47:53;;;;;;;7.10;6.50;;;;;;;12.21;100.00;101345.22;5049268;28;20026;-80
2023/08/09 04:50:24;;;;;;;6.32;5.82;;;;;;;12.20;100.00;101345.31;5051934;28;20029;-80
2023/08/09 04:52:50;;;;;;;7.32;6.72;;;;;;;12.24;100.00;101336.22;5048188;28;20021;-80
2023/08/09 04:55:16;;;;;;;10.93;7.07;;;;;;;12.31;100.00;101340.09;5039419;28;20044;-80
2023/08/09 04:57:42;;;;;;;17.13;7.97;;;;;;;12.30;100.00;101338.41;5042379;28;20100;-80
2023/08/09 05:00:11;;;;;;;8.40;7.70;;;;;;;12.38;100.00;101345.75;5051120;28;20032;-80
2023/08/09 05:02:37;;;;;;;9.60;8.57;;;;;;;12.40;100.00;101342.03;5049639;28;20049;-80
2023/08/09 05:05:04;;;;;;;15.30;9.32;;;;;;;12.42;100.00;101342.81;5036683;28;20516;-79
2023/08/09 05:07:29;;;;;;;13.65;8.88;;;;;;;12.45;100.00;101345.22;5036387;28;20431;-80
2023/08/09 05:09:55;;;;;;;11.80;8.88;;;;;;;12.49;100.00;101351.94;5031101;28;20071;-80
2023/08/09 05:12:20;;;;;;;13.57;8.65;;;;;;;12.54;100.00;101348.97;5041666;28;20078;-79
2023/08/09 05:14:45;;;;;;;13.75;9.60;;;;;;;12.60;100.00;101355.59;5050526;28;20030;-80
2023/08/09 05:17:11;;;;;;;9.93;9.02;;;;;;;12.66;100.00;101355.13;5068412;28;20093;-80
2023/08/09 05:19:36;;;;;;;17.83;10.30;;;;;;;12.60;100.00;101356.44;5061093;28;20027;-80
2023/08/09 05:22:02;;;;;;;10.75;9.65;;;;;;;12.71;100.00;101361.75;5047664;28;20017;-79
2023/08/09 05:24:27;;;;;;;13.60;10.88;;;;;;;12.78;100.00;101359.47;5038411;28;20597;-80
2023/08/09 05:26:52;;;;;;;16.27;12.52;;;;;;;12.84;100.00;101372.25;5036217;28;20052;-80
2023/08/09 05:29:18;;;;;;;14.50;11.75;;;;;;;12.88;100.00;101371.06;5041822;28;20023;-79
2023/08/09 05:31:43;;;;;;;12.27;11.07;;;;;;;12.90;100.00;101371.78;5071365;28;20017;-80
2023/08/09 05:34:09;;;;;;;15.38;11.48;;;;;;;12.93;100.00;101374.19;5050850;28;20112;-80
2023/08/09 05:36:34;;;;;;;14.07;11.45;;;;;;;13.05;100.00;101378.53;5036620;28;20032;-80
2023/08/09 05:38:59;;;;;;;16.52;11.93;;;;;;;13.11;100.00;101374.59;5049694;28;20035;-79
2023/08/09 05:41:25;;;;;;;13.85;12.40;;;;;;;13.16;100.00;101377.72;5030680;28;20370;-80
2023/08/09 05:43:50;;;;;;;17.08;13.57;;;;;;;13.24;100.00;101379.84;5028977;28;20036;-80
2023/08/09 05:46:15;;;;;;;15.05;12.98;;;;;;;13.23;100.00;101381.63;5025156;28;20057;-80
2023/08/09 05:48:41;;;;;;;17.40;14.50;;;;;;;13.26;100.00;101383.19;5029988;28;20104;-80
2023/08/09 05:51:06;;;;;;;16.98;15.18;;;;;;;13.30;100.00;101382.00;5029343;28;20025;-80
2023/08/09 05:53:32;;;;;;;18.52;15.75;;;;;;;13.29;100.00;101383.81;5032773;28;20066;-80
2023/08/09 05:55:57;;;;;;;20.13;16.80;;;;;;;13.38;100.00;101387.53;5050338;28;20484;-80
2023/08/09 05:58:23;;;;;;;20.08;17.25;;;;;;;13.38;100.00;101379.59;5041490;28;20033;-80
2023/08/09 06:00:51;;;;;;;22.10;18.17;;;;;;;13.42;100.00;101386.34;5025496;28;20083;-80
2023/08/09 06:03:16;;;;;;;24.10;19.70;;;;;;;13.44;100.00;101392.34;5024993;28;20057;-80
2023/08/09 06:05:42;;;;;;;26.23;18.60;;;;;;;13.41;100.00;101395.22;5029011;28;20102;-81
2023/08/09 06:08:08;;;;;;;22.50;19.48;;;;;;;13.51;100.00;101398.84;5030758;28;20033;-80
2023/08/09 06:10:33;;;;;;;29.88;20.02;;;;;;;13.52;100.00;101403.16;5028392;28;20171;-80
2023/08/09 06:12:58;;;;;;;33.90;20.25;;;;;;;13.55;100.00;101408.22;5029818;28;20119;-80
2023/08/09 06:15:24;;;;;;;23.75;20.08;;;;;;;13.54;100.00;101414.47;5062005;28;20025;-80
2023/08/09 06:17:49;;;;;;;36.42;21.95;;;;;;;13.52;100.00;101416.38;5024564;28;20816;-80
2023/08/09 06:20:16;;;;;;;23.00;20.35;;;;;;;13.58;100.00;101420.34;5017079;28;20121;-80
2023/08/09 06:22:41;;;;;;;22.75;20.33;;;;;;;13.56;100.00;101428.41;5009063;28;20022;-80
2023/08/09 06:25:10;;;;;;;37.08;22.17;;;;;;;13.55;100.00;101436.44;5030690;28;20029;-80
2023/08/09 06:27:36;;;;;;;35.35;21.75;;;;;;;13.58;100.00;101434.41;5049613;28;20029;-79
2023/08/09 06:30:03;;;;;;;33.35;21.35;;;;;;;13.56;100.00;101444.25;5047647;28;20068;-80
2023/08/09 06:32:28;;;;;;;28.73;21.95;;;;;;;13.67;100.00;101441.66;5048264;28;20041;-79
2023/08/09 06:34:54;;;;;;;45.30;22.25;;;;;;;13.71;100.00;101440.47;5032522;28;20037;-80
2023/08/09 06:37:19;;;;;;;33.58;22.33;;;;;;;13.75;100.00;101446.34;5027532;28;20112;-80
2023/08/09 06:39:45;;;;;;;26.77;22.10;;;;;;;13.74;100.00;101442.84;5025257;28;20037;-80
2023/08/09 06:42:12;;;;;;;42.70;22.25;;;;;;;13.76;100.00;101446.22;5041087;28;20496;-81
2023/08/09 06:44:38;;;;;;;42.42;23.35;;;;;;;13.79;100.00;101448.63;5039787;28;20086;-80
2023/08/09 06:47:03;;;;;;;32.13;21.90;;;;;;;13.81;100.00;101448.50;5042477;28;20529;-80
2023/08/09 06:49:29;;;;;;;36.58;23.40;;;;;;;13.84;100.00;101440.34;5028061;28;20060;-80
2023/08/09 06:51:55;;;;;;;27.95;22.65;;;;;;;13.93;100.00;101452.00;5038288;28;20079;-79
2023/08/09 06:54:20;;;;;;;29.95;22.90;;;;;;;13.98;100.00;101455.13;5039560;28;20397;-80
2023/08/09 06:56:45;;;;;;;28.15;22.35;;;;;;;14.02;100.00;101461.88;5036108;28;20029;-80
2023/08/09 06:59:11;;;;;;;27.52;23.73;;;;;;;14.14;100.00;101460.06;5047025;28;20021;-80
2023/08/09 07:01:36;;;;;;;25.00;22.35;;;;;;;14.25;100.00;101468.81;5032989;28;20029;-80
2023/08/09 07:04:02;;;;;;;24.98;22.35;;;;;;;14.38;100.00;101469.53;5048550;28;20428;-80
2023/08/09 07:06:27;;;;;;;23.50;21.05;;;;;;;14.49;100.00;101481.97;5032974;28;20033;-80
2023/08/09 07:08:53;;;;;;;24.50;21.90;;;;;;;14.63;100.00;101478.19;5032405;28;20104;-80
2023/08/09 07:11:20;;;;;;;22.67;20.33;;;;;;;14.72;100.00;101480.91;5031195;28;20021;-81
2023/08/09 07:13:45;;;;;;;25.67;20.88;;;;;;;14.78;100.00;101468.97;5031883;28;20703;-80
2023/08/09 07:16:11;;;;;;;22.73;20.58;;;;;;;14.91;100.00;101469.69;5043640;28;20040;-80
2023/08/09 07:18:39;;;;;;;22.02;19.83;;;;;;;15.02;100.00;101464.31;5024973;28;20033;-80
2023/08/09 07:21:05;;;;;;;20.30;18.30;;;;;;;14.99;100.00;101469.88;5027260;28;21696;-80
2023/08/09 07:23:31;;;;;;;20.52;18.52;;;;;;;15.00;100.00;101490.13;5033066;28;20083;-80
2023/08/09 07:25:56;;;;;;;20.75;18.75;;;;;;;15.17;100.00;101477.25;5041297;28;20029;-79
2023/08/09 07:28:22;;;;;;;18.38;16.48;;;;;;;15.12;100.00;101479.47;5032553;28;20021;-80
2023/08/09 07:30:50;;;;;;;18.45;16.75;;;;;;;15.25;100.00;101486.28;5040642;28;20443;-80
2023/08/09 07:33:16;;;;;;;19.73;17.63;;;;;;;15.37;100.00;101484.41;5033877;28;20120;-78
2023/08/09 07:35:42;;;;;;;17.40;15.68;;;;;;;15.45;100.00;101489.06;5043848;28;20484;-79
2023/08/09 07:38:11;;;;;;;19.17;17.25;;;;;;;15.59;100.00;101492.25;5034687;28;20031;-79
2023/08/09 07:40:37;;;;;;;18.42;16.52;;;;;;;15.64;100.00;101486.59;5035551;28;20055;-80
2023/08/09 07:43:03;;;;;;;18.23;16.45;;;;;;;15.72;100.00;101494.72;5035871;28;20454;-79
2023/08/09 07:45:28;;;;;;;19.20;17.20;;;;;;;15.82;100.00;101494.78;5036950;28;20053;-80
2023/08/09 07:47:54;;;;;;;18.50;16.67;;;;;;;15.72;100.00;101497.38;5031015;28;20026;-80
2023/08/09 07:50:20;;;;;;;18.13;16.45;;;;;;;15.76;100.00;101496.16;5039604;28;20029;-79
2023/08/09 07:52:47;;;;;;;20.60;18.58;;;;;;;15.71;100.00;101497.50;5034274;28;20025;-79
2023/08/09 07:55:12;;;;;;;17.95;16.05;;;;;;;15.71;100.00;101503.66;5031213;28;20028;-79
2023/08/09 07:57:38;;;;;;;17.13;15.38;;;;;;;15.78;100.00;101514.59;5025631;28;20402;-79
2023/08/09 08:00:24;;;;;;;17.52;15.82;;;;;;;15.89;100.00;101510.03;5031828;28;20116;-78
2023/08/09 08:02:49;;;;;;;17.67;15.88;;;;;;;16.00;100.00;101519.72;5027998;28;20105;-79
2023/08/09 08:05:15;;;;;;;18.58;16.35;;;;;;;16.09;100.00;101516.31;5034545;28;20128;-78
2023/08/09 08:07:44;;;;;;;17.77;15.98;;;;;;;16.23;100.00;101521.25;5040041;28;20115;-78
2023/08/09 08:10:14;;;;;;;18.02;16.23;;;;;;;16.43;100.00;101516.88;5035004;28;20060;-80
2023/08/09 08:12:42;;;;;;;17.63;15.07;;;;;;;16.59;100.00;101511.03;5047614;28;20059;-80
2023/08/09 08:15:08;;;;;;;17.60;15.90;;;;;;;16.69;100.00;101517.22;5031346;28;20028;-79
2023/08/09 08:17:34;;;;;;;17.80;16.02;;;;;;;16.83;100.00;101524.81;5033785;28;20397;-78
2023/08/09 08:19:59;;;;;;;17.20;15.40;;;;;;;17.12;100.00;101518.69;5049666;28;20028;-78
2023/08/09 08:22:25;;;;;;;17.15;15.45;;;;;;;17.14;100.00;101522.03;5050604;28;20074;-80
2023/08/09 08:24:51;;;;;;;16.83;14.88;;;;;;;17.12;100.00;101519.53;5050041;28;20424;-78
2023/08/09 08:27:16;;;;;;;16.13;14.25;;;;;;;17.04;100.00;101511.41;5044234;28;20189;-79
2023/08/09 08:29:42;;;;;;;15.48;13.98;;;;;;;16.85;100.00;101528.19;5011410;28;20084;-79
2023/08/09 08:32:10;;;;;;;16.80;14.63;;;;;;;17.11;100.00;101533.78;5009924;28;20026;-80
2023/08/09 08:34:36;;;;;;;14.40;12.98;;;;;;;17.41;100.00;101527.50;5011866;28;20482;-81
2023/08/09 08:37:01;;;;;;;12.35;11.05;;;;;;;17.65;100.00;101536.88;5026597;28;20080;-80
2023/08/09 08:39:29;;;;;;;13.27;12.07;;;;;;;17.82;100.00;101533.50;5010723;28;20119;-79
2023/08/09 08:41:55;;;;;;;13.25;11.95;;;;;;;17.70;100.00;101537.31;5026564;28;20014;-80
2023/08/09 08:44:23;;;;;;;13.90;11.27;;;;;;;17.59;100.00;101534.75;5026651;28;20561;-80
2023/08/09 08:46:49;;;;;;;12.10;11.00;;;;;;;17.68;100.00;101539.28;5022470;28;20099;-79
2023/08/09 08:49:19;;;;;;;13.27;11.80;;;;;;;17.67;100.00;101540.28;5031033;28;20025;-80
2023/08/09 08:51:49;;;;;;;11.98;10.80;;;;;;;17.81;100.00;101548.63;5030277;28;20141;-81
2023/08/09 08:54:15;;;;;;;13.75;11.10;;;;;;;17.94;100.00;101540.31;5036604;28;20386;-80
2023/08/09 08:56:41;;;;;;;11.40;10.20;;;;;;;18.01;100.00;101549.44;5050633;28;20028;-80
2023/08/09 08:59:08;;;;;;;11.35;10.25;;;;;;;18.24;100.00;101554.41;5048645;28;20115;-80
2023/08/09 09:01:34;;;;;;;11.70;10.23;;;;;;;18.56;98.35;101551.34;5049052;28;20446;-80
2023/08/09 09:03:59;;;;;;;11.70;10.20;;;;;;;18.72;100.00;101549.72;5025530;28;20029;-80
2023/08/09 09:06:24;;;;;;;10.00;8.93;;;;;;;19.23;98.71;101558.94;5009599;28;20140;-80
2023/08/09 09:08:59;;;;;;;11.00;9.90;;;;;;;19.44;91.56;101565.78;5010004;28;20033;-80
2023/08/09 09:11:26;;;;;;;9.82;8.82;;;;;;;19.33;92.88;101564.19;5010102;28;20058;-81
2023/08/09 09:13:52;;;;;;;9.43;7.97;;;;;;;19.37;90.77;101560.22;5009594;28;20029;-81
2023/08/09 09:16:19;;;;;;;9.60;7.88;;;;;;;19.26;90.07;101566.66;5025117;28;20033;-80
2023/08/09 09:18:47;;;;;;;9.63;8.45;;;;;;;19.66;91.41;101558.19;5010254;28;20170;-80
2023/08/09 09:21:14;;;;;;;14.73;9.23;;;;;;;19.84;91.53;101554.63;5019208;28;20369;-80
2023/08/09 09:23:40;;;;;;;12.77;8.98;;;;;;;19.82;89.64;101554.78;5027097;28;20029;-81
2023/08/09 09:26:09;;;;;;;9.93;8.43;;;;;;;19.65;89.48;101559.19;5024849;28;20030;-80
2023/08/09 09:28:41;;;;;;;11.52;9.40;;;;;;;19.88;89.18;101567.50;5034614;28;20036;-79
2023/08/09 09:31:10;;;;;;;10.85;8.75;;;;;;;20.30;87.07;101562.25;5031637;28;20064;-80
2023/08/09 09:33:37;;;;;;;10.68;9.18;;;;;;;20.50;86.12;101578.94;5037552;28;20120;-81
2023/08/09 09:36:03;;;;;;;10.88;9.27;;;;;;;20.78;81.02;101578.69;5034578;28;20091;-80
2023/08/09 09:38:29;;;;;;;10.85;9.80;;;;;;;20.96;80.80;101571.41;5046119;28;20389;-81
2023/08/09 09:40:57;;;;;;;9.80;8.80;;;;;;;21.03;77.40;101577.78;5044873;28;20025;-81
2023/08/09 09:43:24;;;;;;;11.30;8.77;;;;;;;21.02;79.26;101568.06;5029085;28;20033;-81
2023/08/09 09:45:53;;;;;;;11.70;10.25;;;;;;;21.15;79.40;101560.41;5038329;28;20044;-81
2023/08/09 09:48:19;;;;;;;12.48;9.88;;;;;;;21.23;76.66;101563.13;5038545;28;20572;-80
2023/08/09 09:50:44;;;;;;;8.68;7.88;;;;;;;21.59;78.64;101558.28;5028476;28;20033;-81
2023/08/09 09:53:15;;;;;;;11.00;8.30;;;;;;;21.45;76.28;101555.44;5028865;28;20079;-81
2023/08/09 09:55:41;;;;;;;9.45;7.57;;;;;;;21.46;78.69;101551.75;5069484;28;20033;-80
2023/08/09 09:58:08;;;;;;;8.23;7.43;;;;;;;21.48;75.70;101552.44;5033268;28;20092;-81
2023/08/09 10:00:33;;;;;;;7.18;6.50;;;;;;;21.17;77.40;101558.38;5043483;28;20508;-81
2023/08/09 10:03:04;;;;;;;8.23;5.88;;;;;;;20.79;75.48;101558.97;5062806;28;20025;-80
2023/08/09 10:05:37;;;;;;;7.22;6.10;;;;;;;20.62;75.51;101568.78;5043027;28;20115;-81
2023/08/09 10:08:06;;;;;;;7.10;5.05;;;;;;;20.77;74.86;101555.63;5029200;28;20674;-80
2023/08/09 10:10:33;;;;;;;7.30;5.65;;;;;;;20.82;72.37;101558.66;5042079;28;20029;-80
2023/08/09 10:13:01;;;;;;;5.63;4.55;;;;;;;21.30;73.23;101549.09;5043286;28;20029;-76
2023/08/09 10:15:35;;;;;;;5.97;4.28;;;;;;;21.79;72.33;101552.59;5027841;28;20034;-80
2023/08/09 10:18:10;;;;;;;7.03;4.85;;;;;;;21.75;71.65;101552.09;5027661;28;20386;-80
2023/08/09 10:20:46;;;;;;;5.65;4.15;;;;;;;21.67;71.06;101552.09;5044408;28;20571;-79
2023/08/09 10:23:22;;;;;;;6.57;4.57;;;;;;;21.61;71.79;101550.06;5046837;28;20036;-79
2023/08/09 10:25:48;;;;;;;5.95;3.85;;;;;;;21.86;69.33;101543.69;5028731;28;20029;-79
2023/08/09 10:28:14;;;;;;;4.55;3.80;;;;;;;22.14;69.30;101551.38;5041828;28;20055;-79
2023/08/09 10:30:49;;;;;;;4.20;3.38;;;;;;;22.19;69.41;101560.56;5048634;28;20489;-79
2023/08/09 10:33:18;;;;;;;4.88;3.97;;;;;;;22.28;64.74;101556.03;5040129;28;20033;-81
2023/08/09 10:35:44;;;;;;;6.18;3.20;;;;;;;22.12;66.62;101561.44;5034605;28;20086;-80
2023/08/09 10:38:15;;;;;;;4.60;3.38;;;;;;;21.98;66.93;101570.13;5041554;28;20440;-81
2023/08/09 10:40:42;;;;;;;4.68;3.80;;;;;;;21.54;68.85;101571.34;5038886;28;20385;-79
2023/08/09 10:43:16;;;;;;;4.00;3.20;;;;;;;21.59;69.19;101573.50;5052965;28;20031;-80
2023/08/09 10:45:45;;;;;;;4.43;3.72;;;;;;;21.66;69.68;101569.19;5051027;28;20052;-79
2023/08/09 10:48:20;;;;;;;5.03;3.42;;;;;;;21.96;68.01;101572.16;5032504;28;20108;-78
2023/08/09 10:50:45;;;;;;;3.80;3.40;;;;;;;21.89;67.88;101577.34;5038723;28;20055;-80
2023/08/09 10:53:11;;;;;;;4.10;3.20;;;;;;;22.07;65.51;101577.22;5050674;28;20032;-79
2023/08/09 10:55:36;;;;;;;4.45;3.03;;;;;;;22.04;64.28;101577.53;5053284;28;20393;-80
2023/08/09 10:58:02;;;;;;;4.53;3.30;;;;;;;22.27;67.38;101562.41;5036031;28;20041;-80
2023/08/09 11:00:38;;;;;;;3.63;2.88;;;;;;;22.58;65.88;101575.03;5029700;28;20316;-79
2023/08/09 11:03:04;;;;;;;4.15;2.67;;;;;;;22.70;59.97;101579.81;5035904;28;20037;-80
2023/08/09 11:05:29;;;;;;;3.30;2.30;;;;;;;22.72;62.32;101576.97;5031751;28;20280;-79
2023/08/09 11:07:57;;;;;;;3.65;2.50;;;;;;;22.52;61.42;101571.19;5062979;28;20374;-78
2023/08/09 11:10:36;;;;;;;4.95;2.17;;;;;;;22.47;62.23;101565.53;5064894;28;20021;-80